sensor_id;sensor_type;location;lat;lon;timestamp;P1;durP1;ratioP1;P2;durP2;ratioP2
55758;SDS011;41678;52.126;20.664;2023-04-15T00:01:59;11.38;;;4.65;;
55758;SDS011;41678;52.126;20.664;2023-04-15T00:07:19;10.65;;;4.38;;
55758;SDS011;41678;52.126;20.664;2023-04-15T00:12:39;9.88;;;4.72;;
55758;SDS011;41678;52.126;20.664;2023-04-15T00:17:59;12.88;;;4.85;;
55758;SDS011;41678;52.126;20.664;2023-04-15T00:23:19;10.45;;;4.57;;
55758;SDS011;41678;52.126;20.664;2023-04-15T00:28:39;9.48;;;4.45;;
55758;SDS011;41678;52.126;20.664;2023-04-15T00:33:58;9.30;;;4.07;;
55758;SDS011;41678;52.126;20.664;2023-04-15T00:39:18;12.85;;;4.80;;
55758;SDS011;41678;52.126;20.664;2023-04-15T00:44:38;11.95;;;5.63;;
55758;SDS011;41678;52.126;20.664;2023-04-15T00:49:58;10.20;;;5.07;;
55758;SDS011;41678;52.126;20.664;2023-04-15T00:55:17;12.10;;;6.13;;
55758;SDS011;41678;52.126;20.664;2023-04-15T01:00:37;13.02;;;6.07;;
55758;SDS011;41678;52.126;20.664;2023-04-15T01:05:57;11.18;;;5.82;;
55758;SDS011;41678;52.126;20.664;2023-04-15T01:11:17;12.63;;;5.03;;
55758;SDS011;41678;52.126;20.664;2023-04-15T01:16:37;12.77;;;5.32;;
55758;SDS011;41678;52.126;20.664;2023-04-15T01:21:58;10.33;;;5.77;;
55758;SDS011;41678;52.126;20.664;2023-04-15T01:27:17;11.20;;;5.28;;
55758;SDS011;41678;52.126;20.664;2023-04-15T01:32:39;12.37;;;5.97;;
55758;SDS011;41678;52.126;20.664;2023-04-15T01:38:02;13.15;;;5.18;;
55758;SDS011;41678;52.126;20.664;2023-04-15T01:43:24;16.45;;;6.78;;
55758;SDS011;41678;52.126;20.664;2023-04-15T01:48:45;12.02;;;5.57;;
55758;SDS011;41678;52.126;20.664;2023-04-15T01:54:05;11.70;;;5.57;;
55758;SDS011;41678;52.126;20.664;2023-04-15T01:59:25;10.40;;;4.35;;
55758;SDS011;41678;52.126;20.664;2023-04-15T02:04:47;9.15;;;4.75;;
55758;SDS011;41678;52.126;20.664;2023-04-15T02:10:07;17.08;;;6.45;;
55758;SDS011;41678;52.126;20.664;2023-04-15T02:15:28;13.50;;;6.80;;
55758;SDS011;41678;52.126;20.664;2023-04-15T02:20:50;11.27;;;6.25;;
55758;SDS011;41678;52.126;20.664;2023-04-15T02:26:10;13.98;;;6.18;;
55758;SDS011;41678;52.126;20.664;2023-04-15T02:31:30;13.45;;;7.03;;
55758;SDS011;41678;52.126;20.664;2023-04-15T02:36:54;14.00;;;5.85;;
55758;SDS011;41678;52.126;20.664;2023-04-15T02:42:15;12.05;;;5.75;;
55758;SDS011;41678;52.126;20.664;2023-04-15T02:47:35;14.73;;;6.85;;
55758;SDS011;41678;52.126;20.664;2023-04-15T02:52:57;14.23;;;7.03;;
55758;SDS011;41678;52.126;20.664;2023-04-15T02:58:16;15.48;;;7.60;;
55758;SDS011;41678;52.126;20.664;2023-04-15T03:03:36;12.35;;;6.40;;
55758;SDS011;41678;52.126;20.664;2023-04-15T03:08:55;14.18;;;7.10;;
55758;SDS011;41678;52.126;20.664;2023-04-15T03:14:16;17.52;;;7.00;;
55758;SDS011;41678;52.126;20.664;2023-04-15T03:19:39;13.80;;;7.40;;
55758;SDS011;41678;52.126;20.664;2023-04-15T03:24:59;14.27;;;6.90;;
55758;SDS011;41678;52.126;20.664;2023-04-15T03:30:20;14.17;;;7.20;;
55758;SDS011;41678;52.126;20.664;2023-04-15T03:35:40;15.20;;;5.78;;
55758;SDS011;41678;52.126;20.664;2023-04-15T03:41:00;14.93;;;7.00;;
55758;SDS011;41678;52.126;20.664;2023-04-15T03:46:19;15.35;;;6.55;;
55758;SDS011;41678;52.126;20.664;2023-04-15T03:51:39;12.20;;;6.45;;
55758;SDS011;41678;52.126;20.664;2023-04-15T03:56:59;15.73;;;7.18;;
55758;SDS011;41678;52.126;20.664;2023-04-15T04:02:19;15.75;;;7.47;;
55758;SDS011;41678;52.126;20.664;2023-04-15T04:07:39;13.85;;;6.68;;
55758;SDS011;41678;52.126;20.664;2023-04-15T04:12:59;15.18;;;7.90;;
55758;SDS011;41678;52.126;20.664;2023-04-15T04:18:20;16.70;;;8.35;;
55758;SDS011;41678;52.126;20.664;2023-04-15T04:23:40;13.75;;;6.70;;
55758;SDS011;41678;52.126;20.664;2023-04-15T04:28:59;14.85;;;7.15;;
55758;SDS011;41678;52.126;20.664;2023-04-15T04:34:19;16.65;;;6.80;;
55758;SDS011;41678;52.126;20.664;2023-04-15T04:39:39;16.98;;;6.50;;
55758;SDS011;41678;52.126;20.664;2023-04-15T04:44:59;12.80;;;6.35;;
55758;SDS011;41678;52.126;20.664;2023-04-15T04:50:19;14.93;;;6.35;;
55758;SDS011;41678;52.126;20.664;2023-04-15T04:55:38;12.52;;;6.20;;
55758;SDS011;41678;52.126;20.664;2023-04-15T05:00:57;13.15;;;6.22;;
55758;SDS011;41678;52.126;20.664;2023-04-15T05:06:17;13.10;;;6.38;;
55758;SDS011;41678;52.126;20.664;2023-04-15T05:11:37;17.23;;;6.97;;
55758;SDS011;41678;52.126;20.664;2023-04-15T05:16:56;12.00;;;6.13;;
55758;SDS011;41678;52.126;20.664;2023-04-15T05:22:16;12.02;;;6.15;;
55758;SDS011;41678;52.126;20.664;2023-04-15T05:27:35;12.63;;;6.72;;
55758;SDS011;41678;52.126;20.664;2023-04-15T05:32:55;13.43;;;6.18;;
55758;SDS011;41678;52.126;20.664;2023-04-15T05:38:15;14.15;;;7.00;;
55758;SDS011;41678;52.126;20.664;2023-04-15T05:43:34;11.90;;;6.57;;
55758;SDS011;41678;52.126;20.664;2023-04-15T05:48:54;12.48;;;5.72;;
55758;SDS011;41678;52.126;20.664;2023-04-15T05:54:14;19.40;;;6.35;;
55758;SDS011;41678;52.126;20.664;2023-04-15T05:59:34;17.75;;;6.90;;
55758;SDS011;41678;52.126;20.664;2023-04-15T06:04:54;11.38;;;5.93;;
55758;SDS011;41678;52.126;20.664;2023-04-15T06:10:13;14.27;;;7.28;;
55758;SDS011;41678;52.126;20.664;2023-04-15T06:15:33;13.57;;;6.40;;
55758;SDS011;41678;52.126;20.664;2023-04-15T06:20:54;15.30;;;6.75;;
55758;SDS011;41678;52.126;20.664;2023-04-15T06:26:13;12.52;;;6.45;;
55758;SDS011;41678;52.126;20.664;2023-04-15T06:31:32;11.35;;;6.15;;
55758;SDS011;41678;52.126;20.664;2023-04-15T06:36:52;12.55;;;5.70;;
55758;SDS011;41678;52.126;20.664;2023-04-15T06:42:13;12.73;;;6.63;;
55758;SDS011;41678;52.126;20.664;2023-04-15T06:47:32;12.90;;;6.70;;
55758;SDS011;41678;52.126;20.664;2023-04-15T06:52:55;13.48;;;6.57;;
55758;SDS011;41678;52.126;20.664;2023-04-15T06:58:15;11.20;;;6.00;;
55758;SDS011;41678;52.126;20.664;2023-04-15T07:03:35;11.98;;;5.32;;
55758;SDS011;41678;52.126;20.664;2023-04-15T07:08:55;13.48;;;6.57;;
55758;SDS011;41678;52.126;20.664;2023-04-15T07:14:15;15.43;;;6.15;;
55758;SDS011;41678;52.126;20.664;2023-04-15T07:19:35;15.77;;;5.00;;
55758;SDS011;41678;52.126;20.664;2023-04-15T07:24:56;13.10;;;5.47;;
55758;SDS011;41678;52.126;20.664;2023-04-15T07:30:15;9.65;;;4.75;;
55758;SDS011;41678;52.126;20.664;2023-04-15T07:35:35;10.18;;;4.30;;
55758;SDS011;41678;52.126;20.664;2023-04-15T07:40:55;8.43;;;4.70;;
55758;SDS011;41678;52.126;20.664;2023-04-15T07:46:14;12.02;;;4.65;;
55758;SDS011;41678;52.126;20.664;2023-04-15T07:51:34;7.15;;;3.45;;
55758;SDS011;41678;52.126;20.664;2023-04-15T07:56:54;9.00;;;4.10;;
55758;SDS011;41678;52.126;20.664;2023-04-15T08:02:14;11.65;;;4.75;;
55758;SDS011;41678;52.126;20.664;2023-04-15T08:07:35;6.38;;;2.92;;
55758;SDS011;41678;52.126;20.664;2023-04-15T08:12:55;9.27;;;3.00;;
55758;SDS011;41678;52.126;20.664;2023-04-15T08:18:15;7.38;;;3.38;;
55758;SDS011;41678;52.126;20.664;2023-04-15T08:23:35;8.07;;;3.67;;
55758;SDS011;41678;52.126;20.664;2023-04-15T08:28:55;7.82;;;3.28;;
55758;SDS011;41678;52.126;20.664;2023-04-15T08:34:17;9.65;;;3.33;;
55758;SDS011;41678;52.126;20.664;2023-04-15T08:39:36;8.02;;;3.13;;
55758;SDS011;41678;52.126;20.664;2023-04-15T08:44:58;8.10;;;2.95;;
55758;SDS011;41678;52.126;20.664;2023-04-15T08:50:19;6.60;;;3.03;;
55758;SDS011;41678;52.126;20.664;2023-04-15T08:55:45;7.28;;;3.08;;
55758;SDS011;41678;52.126;20.664;2023-04-15T09:01:05;7.75;;;3.47;;
55758;SDS011;41678;52.126;20.664;2023-04-15T09:06:26;7.72;;;3.30;;
55758;SDS011;41678;52.126;20.664;2023-04-15T09:11:45;7.10;;;3.22;;
55758;SDS011;41678;52.126;20.664;2023-04-15T09:17:04;6.72;;;3.00;;
55758;SDS011;41678;52.126;20.664;2023-04-15T09:22:31;5.47;;;2.58;;
55758;SDS011;41678;52.126;20.664;2023-04-15T09:27:52;7.05;;;3.13;;
55758;SDS011;41678;52.126;20.664;2023-04-15T09:33:16;6.65;;;2.47;;
55758;SDS011;41678;52.126;20.664;2023-04-15T09:38:36;7.25;;;3.28;;
55758;SDS011;41678;52.126;20.664;2023-04-15T09:44:23;6.35;;;2.95;;
55758;SDS011;41678;52.126;20.664;2023-04-15T09:49:54;7.47;;;2.80;;
55758;SDS011;41678;52.126;20.664;2023-04-15T09:55:16;7.13;;;2.60;;
55758;SDS011;41678;52.126;20.664;2023-04-15T10:00:36;6.82;;;3.03;;
55758;SDS011;41678;52.126;20.664;2023-04-15T10:05:57;7.57;;;3.22;;
55758;SDS011;41678;52.126;20.664;2023-04-15T10:16:39;8.95;;;2.95;;
55758;SDS011;41678;52.126;20.664;2023-04-15T10:22:01;6.40;;;3.17;;
55758;SDS011;41678;52.126;20.664;2023-04-15T10:27:21;7.60;;;2.75;;
55758;SDS011;41678;52.126;20.664;2023-04-15T10:32:41;12.05;;;4.70;;
55758;SDS011;41678;52.126;20.664;2023-04-15T10:38:01;8.65;;;3.72;;
55758;SDS011;41678;52.126;20.664;2023-04-15T10:49:10;9.95;;;4.40;;
55758;SDS011;41678;52.126;20.664;2023-04-15T10:54:31;7.03;;;3.28;;
55758;SDS011;41678;52.126;20.664;2023-04-15T11:05:18;8.40;;;3.90;;
55758;SDS011;41678;52.126;20.664;2023-04-15T11:15:57;12.07;;;3.17;;
55758;SDS011;41678;52.126;20.664;2023-04-15T11:26:42;8.27;;;3.65;;
55758;SDS011;41678;52.126;20.664;2023-04-15T11:32:08;7.15;;;3.28;;
55758;SDS011;41678;52.126;20.664;2023-04-15T11:37:28;7.18;;;2.97;;
55758;SDS011;41678;52.126;20.664;2023-04-15T11:54:03;5.43;;;2.20;;
55758;SDS011;41678;52.126;20.664;2023-04-15T11:59:23;8.15;;;3.38;;
55758;SDS011;41678;52.126;20.664;2023-04-15T12:04:42;4.65;;;1.90;;
55758;SDS011;41678;52.126;20.664;2023-04-15T12:10:02;5.35;;;2.30;;
55758;SDS011;41678;52.126;20.664;2023-04-15T12:15:22;8.93;;;3.70;;
55758;SDS011;41678;52.126;20.664;2023-04-15T12:20:43;5.53;;;1.95;;
55758;SDS011;41678;52.126;20.664;2023-04-15T12:26:06;7.53;;;1.60;;
55758;SDS011;41678;52.126;20.664;2023-04-15T12:31:26;5.68;;;1.63;;
55758;SDS011;41678;52.126;20.664;2023-04-15T12:36:46;7.25;;;2.00;;
55758;SDS011;41678;52.126;20.664;2023-04-15T12:42:07;5.20;;;1.73;;
55758;SDS011;41678;52.126;20.664;2023-04-15T12:47:27;8.98;;;2.03;;
55758;SDS011;41678;52.126;20.664;2023-04-15T12:52:47;7.10;;;3.30;;
55758;SDS011;41678;52.126;20.664;2023-04-15T12:58:06;8.55;;;4.00;;
55758;SDS011;41678;52.126;20.664;2023-04-15T13:03:26;9.00;;;3.78;;
55758;SDS011;41678;52.126;20.664;2023-04-15T13:08:45;12.40;;;4.70;;
55758;SDS011;41678;52.126;20.664;2023-04-15T13:14:06;12.32;;;5.18;;
55758;SDS011;41678;52.126;20.664;2023-04-15T13:19:26;15.68;;;5.00;;
55758;SDS011;41678;52.126;20.664;2023-04-15T13:24:46;8.95;;;3.92;;
55758;SDS011;41678;52.126;20.664;2023-04-15T13:30:06;12.60;;;3.50;;
55758;SDS011;41678;52.126;20.664;2023-04-15T13:35:26;7.32;;;3.30;;
55758;SDS011;41678;52.126;20.664;2023-04-15T13:40:46;7.20;;;2.85;;
55758;SDS011;41678;52.126;20.664;2023-04-15T13:46:05;8.95;;;2.80;;
55758;SDS011;41678;52.126;20.664;2023-04-15T13:51:25;8.30;;;2.97;;
55758;SDS011;41678;52.126;20.664;2023-04-15T13:56:45;6.57;;;2.50;;
55758;SDS011;41678;52.126;20.664;2023-04-15T14:02:05;5.78;;;1.98;;
55758;SDS011;41678;52.126;20.664;2023-04-15T14:07:25;6.00;;;1.85;;
55758;SDS011;41678;52.126;20.664;2023-04-15T14:12:45;6.47;;;2.00;;
55758;SDS011;41678;52.126;20.664;2023-04-15T14:18:05;5.43;;;1.90;;
55758;SDS011;41678;52.126;20.664;2023-04-15T14:23:25;6.60;;;2.40;;
55758;SDS011;41678;52.126;20.664;2023-04-15T14:28:44;15.95;;;3.85;;
55758;SDS011;41678;52.126;20.664;2023-04-15T14:34:04;7.45;;;2.10;;
55758;SDS011;41678;52.126;20.664;2023-04-15T14:39:24;6.88;;;2.10;;
55758;SDS011;41678;52.126;20.664;2023-04-15T14:44:43;6.10;;;1.90;;
55758;SDS011;41678;52.126;20.664;2023-04-15T14:50:03;10.07;;;3.63;;
55758;SDS011;41678;52.126;20.664;2023-04-15T14:55:22;5.60;;;2.17;;
55758;SDS011;41678;52.126;20.664;2023-04-15T15:00:43;7.22;;;2.45;;
55758;SDS011;41678;52.126;20.664;2023-04-15T15:06:02;9.90;;;3.45;;
55758;SDS011;41678;52.126;20.664;2023-04-15T15:11:23;16.67;;;3.58;;
55758;SDS011;41678;52.126;20.664;2023-04-15T15:16:42;6.32;;;1.70;;
55758;SDS011;41678;52.126;20.664;2023-04-15T15:22:02;6.53;;;2.45;;
55758;SDS011;41678;52.126;20.664;2023-04-15T15:27:22;5.43;;;2.00;;
55758;SDS011;41678;52.126;20.664;2023-04-15T15:32:41;5.63;;;1.88;;
55758;SDS011;41678;52.126;20.664;2023-04-15T15:38:02;6.88;;;2.08;;
55758;SDS011;41678;52.126;20.664;2023-04-15T15:43:21;10.35;;;2.35;;
55758;SDS011;41678;52.126;20.664;2023-04-15T15:48:40;8.57;;;2.13;;
55758;SDS011;41678;52.126;20.664;2023-04-15T15:54:00;7.18;;;1.83;;
55758;SDS011;41678;52.126;20.664;2023-04-15T15:59:19;4.20;;;1.42;;
55758;SDS011;41678;52.126;20.664;2023-04-15T16:04:39;5.45;;;2.30;;
55758;SDS011;41678;52.126;20.664;2023-04-15T16:10:00;23.85;;;2.38;;
55758;SDS011;41678;52.126;20.664;2023-04-15T16:15:21;5.80;;;2.13;;
55758;SDS011;41678;52.126;20.664;2023-04-15T16:26:00;5.60;;;1.63;;
55758;SDS011;41678;52.126;20.664;2023-04-15T16:31:20;7.55;;;2.20;;
55758;SDS011;41678;52.126;20.664;2023-04-15T16:36:39;5.50;;;2.17;;
55758;SDS011;41678;52.126;20.664;2023-04-15T16:41:58;6.35;;;1.80;;
55758;SDS011;41678;52.126;20.664;2023-04-15T16:47:18;6.20;;;2.08;;
55758;SDS011;41678;52.126;20.664;2023-04-15T16:52:37;6.38;;;1.77;;
55758;SDS011;41678;52.126;20.664;2023-04-15T16:57:57;4.88;;;1.60;;
55758;SDS011;41678;52.126;20.664;2023-04-15T17:03:16;5.78;;;1.85;;
55758;SDS011;41678;52.126;20.664;2023-04-15T17:08:36;5.82;;;1.80;;
55758;SDS011;41678;52.126;20.664;2023-04-15T17:13:55;6.53;;;2.45;;
55758;SDS011;41678;52.126;20.664;2023-04-15T17:19:15;7.40;;;2.45;;
55758;SDS011;41678;52.126;20.664;2023-04-15T17:24:35;8.20;;;2.50;;
55758;SDS011;41678;52.126;20.664;2023-04-15T17:29:55;8.27;;;2.25;;
55758;SDS011;41678;52.126;20.664;2023-04-15T17:35:15;7.55;;;2.00;;
55758;SDS011;41678;52.126;20.664;2023-04-15T17:40:35;5.55;;;2.08;;
55758;SDS011;41678;52.126;20.664;2023-04-15T17:45:54;7.13;;;2.67;;
55758;SDS011;41678;52.126;20.664;2023-04-15T17:51:14;7.45;;;2.40;;
55758;SDS011;41678;52.126;20.664;2023-04-15T17:56:35;9.07;;;3.45;;
55758;SDS011;41678;52.126;20.664;2023-04-15T18:01:54;6.72;;;2.95;;
55758;SDS011;41678;52.126;20.664;2023-04-15T18:07:14;10.45;;;2.63;;
55758;SDS011;41678;52.126;20.664;2023-04-15T18:12:34;5.13;;;1.88;;
55758;SDS011;41678;52.126;20.664;2023-04-15T18:17:53;5.28;;;1.92;;
55758;SDS011;41678;52.126;20.664;2023-04-15T18:23:13;7.72;;;2.90;;
55758;SDS011;41678;52.126;20.664;2023-04-15T18:28:32;8.82;;;2.65;;
55758;SDS011;41678;52.126;20.664;2023-04-15T18:33:52;6.03;;;2.03;;
55758;SDS011;41678;52.126;20.664;2023-04-15T18:39:11;7.97;;;2.85;;
55758;SDS011;41678;52.126;20.664;2023-04-15T18:44:31;7.47;;;2.75;;
55758;SDS011;41678;52.126;20.664;2023-04-15T18:49:50;6.45;;;2.22;;
55758;SDS011;41678;52.126;20.664;2023-04-15T18:55:10;7.22;;;1.98;;
55758;SDS011;41678;52.126;20.664;2023-04-15T19:00:30;6.40;;;2.50;;
55758;SDS011;41678;52.126;20.664;2023-04-15T19:05:50;6.60;;;2.47;;
55758;SDS011;41678;52.126;20.664;2023-04-15T19:11:10;5.47;;;2.40;;
55758;SDS011;41678;52.126;20.664;2023-04-15T19:16:29;5.50;;;2.63;;
55758;SDS011;41678;52.126;20.664;2023-04-15T19:21:49;7.15;;;2.80;;
55758;SDS011;41678;52.126;20.664;2023-04-15T19:27:09;8.20;;;3.10;;
55758;SDS011;41678;52.126;20.664;2023-04-15T19:32:28;7.60;;;2.60;;
55758;SDS011;41678;52.126;20.664;2023-04-15T19:37:48;6.22;;;2.50;;
55758;SDS011;41678;52.126;20.664;2023-04-15T19:43:07;6.57;;;2.88;;
55758;SDS011;41678;52.126;20.664;2023-04-15T19:48:27;8.95;;;3.20;;
55758;SDS011;41678;52.126;20.664;2023-04-15T19:53:47;6.45;;;2.67;;
55758;SDS011;41678;52.126;20.664;2023-04-15T19:59:11;6.15;;;2.17;;
55758;SDS011;41678;52.126;20.664;2023-04-15T20:04:31;6.65;;;2.72;;
55758;SDS011;41678;52.126;20.664;2023-04-15T20:09:51;7.65;;;2.25;;
55758;SDS011;41678;52.126;20.664;2023-04-15T20:15:11;7.15;;;2.53;;
55758;SDS011;41678;52.126;20.664;2023-04-15T20:20:32;9.15;;;2.55;;
55758;SDS011;41678;52.126;20.664;2023-04-15T20:25:53;5.78;;;2.30;;
55758;SDS011;41678;52.126;20.664;2023-04-15T20:31:12;6.60;;;2.35;;
55758;SDS011;41678;52.126;20.664;2023-04-15T20:36:31;5.88;;;2.20;;
55758;SDS011;41678;52.126;20.664;2023-04-15T20:41:51;6.45;;;2.47;;
55758;SDS011;41678;52.126;20.664;2023-04-15T20:47:11;8.73;;;2.30;;
55758;SDS011;41678;52.126;20.664;2023-04-15T20:52:30;7.70;;;2.50;;
55758;SDS011;41678;52.126;20.664;2023-04-15T20:57:49;8.15;;;2.28;;
55758;SDS011;41678;52.126;20.664;2023-04-15T21:03:09;9.23;;;1.92;;
55758;SDS011;41678;52.126;20.664;2023-04-15T21:08:30;5.28;;;1.77;;
55758;SDS011;41678;52.126;20.664;2023-04-15T21:13:49;4.90;;;1.90;;
55758;SDS011;41678;52.126;20.664;2023-04-15T21:19:10;7.10;;;2.13;;
55758;SDS011;41678;52.126;20.664;2023-04-15T21:24:29;7.35;;;2.13;;
55758;SDS011;41678;52.126;20.664;2023-04-15T21:29:49;6.95;;;2.15;;
55758;SDS011;41678;52.126;20.664;2023-04-15T21:35:08;5.10;;;1.92;;
55758;SDS011;41678;52.126;20.664;2023-04-15T21:40:28;6.85;;;2.40;;
55758;SDS011;41678;52.126;20.664;2023-04-15T21:45:47;4.80;;;1.67;;
55758;SDS011;41678;52.126;20.664;2023-04-15T21:51:07;6.43;;;2.25;;
55758;SDS011;41678;52.126;20.664;2023-04-15T21:56:26;5.88;;;2.13;;
55758;SDS011;41678;52.126;20.664;2023-04-15T22:01:47;7.83;;;2.50;;
55758;SDS011;41678;52.126;20.664;2023-04-15T22:07:07;5.43;;;2.17;;
55758;SDS011;41678;52.126;20.664;2023-04-15T22:12:27;6.00;;;2.17;;
55758;SDS011;41678;52.126;20.664;2023-04-15T22:17:46;5.97;;;2.42;;
55758;SDS011;41678;52.126;20.664;2023-04-15T22:23:06;5.65;;;2.35;;
55758;SDS011;41678;52.126;20.664;2023-04-15T22:28:27;6.25;;;2.67;;
55758;SDS011;41678;52.126;20.664;2023-04-15T22:33:46;5.57;;;2.50;;
55758;SDS011;41678;52.126;20.664;2023-04-15T22:39:06;6.50;;;2.20;;
55758;SDS011;41678;52.126;20.664;2023-04-15T22:44:25;5.65;;;2.17;;
55758;SDS011;41678;52.126;20.664;2023-04-15T22:49:45;7.55;;;2.28;;
55758;SDS011;41678;52.126;20.664;2023-04-15T22:55:04;6.57;;;2.50;;
55758;SDS011;41678;52.126;20.664;2023-04-15T23:00:24;8.23;;;2.75;;
55758;SDS011;41678;52.126;20.664;2023-04-15T23:05:44;8.07;;;2.60;;
55758;SDS011;41678;52.126;20.664;2023-04-15T23:11:05;5.55;;;2.13;;
55758;SDS011;41678;52.126;20.664;2023-04-15T23:16:25;6.68;;;3.03;;
55758;SDS011;41678;52.126;20.664;2023-04-15T23:21:45;8.10;;;2.38;;
55758;SDS011;41678;52.126;20.664;2023-04-15T23:27:05;5.45;;;2.35;;
55758;SDS011;41678;52.126;20.664;2023-04-15T23:32:24;6.68;;;2.95;;
55758;SDS011;41678;52.126;20.664;2023-04-15T23:37:45;7.35;;;2.50;;
55758;SDS011;41678;52.126;20.664;2023-04-15T23:43:04;6.95;;;2.97;;
55758;SDS011;41678;52.126;20.664;2023-04-15T23:48:24;9.10;;;3.15;;
55758;SDS011;41678;52.126;20.664;2023-04-15T23:53:43;9.18;;;3.13;;
55758;SDS011;41678;52.126;20.664;2023-04-15T23:59:02;9.18;;;3.45;;
